Time;durP1;ratioP1;P1;durP2;ratioP2;P2;SDS_P1;SDS_P2;PMS_P1;PMS_P2;Temp;Humidity;BMP_temperature;BMP_pressure;BME280_temperature;BME280_humidity;BME280_pressure;Samples;Min_cycle;Max_cycle;Signal;HPM_P1;HPM_P2
2022/11/15 00:00:29;;;;;;;21.38;17.08;;;;;;;21.65;45.82;95426.47;5027620;28;20029;-83
2022/11/15 00:02:55;;;;;;;21.42;17.38;;;;;;;22.19;45.89;95500.09;5028132;28;20047;-82
2022/11/15 00:05:20;;;;;;;20.48;16.73;;;;;;;21.82;45.59;95454.47;5027404;28;20053;-83
2022/11/15 00:07:46;;;;;;;20.63;16.50;;;;;;;21.92;46.13;95469.34;5027589;28;20567;-83
2022/11/15 00:10:11;;;;;;;21.20;17.05;;;;;;;22.03;45.77;95487.19;5018068;28;20037;-84
2022/11/15 00:12:37;;;;;;;21.13;17.48;;;;;;;22.04;45.62;95491.38;5028608;28;20018;-82
2022/11/15 00:15:02;;;;;;;20.30;17.02;;;;;;;21.98;45.72;95479.72;5026798;28;20048;-84
2022/11/15 00:17:31;;;;;;;23.20;17.38;;;;;;;22.00;45.78;95481.97;5014877;28;20566;-83
2022/11/15 00:19:57;;;;;;;20.88;16.13;;;;;;;22.07;45.88;95495.84;5068453;28;20115;-84
2022/11/15 00:22:23;;;;;;;20.80;17.00;;;;;;;22.10;45.51;95508.47;5069564;28;20041;-84
2022/11/15 00:24:50;;;;;;;22.27;16.67;;;;;;;21.83;45.93;95450.50;5059696;28;20083;-83
2022/11/15 00:27:16;;;;;;;20.67;16.55;;;;;;;22.06;45.89;95491.66;5069815;28;20108;-83
2022/11/15 00:29:43;;;;;;;22.98;17.55;;;;;;;21.92;45.89;95472.06;5040530;28;20043;-84
2022/11/15 00:32:11;;;;;;;22.08;18.33;;;;;;;22.03;45.91;95486.44;5067626;28;20037;-82
2022/11/15 00:34:36;;;;;;;22.00;17.40;;;;;;;22.03;45.97;95476.31;5068744;28;20049;-83
2022/11/15 00:37:02;;;;;;;20.80;17.08;;;;;;;21.67;45.55;95421.28;5070293;28;20036;-83
2022/11/15 00:39:27;;;;;;;21.77;16.92;;;;;;;22.00;45.80;95482.72;5053183;28;20029;-85
2022/11/15 00:41:53;;;;;;;21.42;16.98;;;;;;;21.59;45.85;95420.25;5056709;28;20032;-83
2022/11/15 00:44:21;;;;;;;19.98;16.77;;;;;;;21.98;45.95;95477.00;5050627;28;20213;-83
2022/11/15 00:46:46;;;;;;;20.42;15.70;;;;;;;21.99;46.12;95481.22;5067580;28;20559;-84
2022/11/15 00:49:12;;;;;;;21.33;17.17;;;;;;;21.90;45.72;95467.09;5053413;28;20041;-83
2022/11/15 00:51:40;;;;;;;21.35;16.85;;;;;;;21.62;45.92;95441.75;5060215;28;20032;-84
2022/11/15 00:54:06;;;;;;;22.95;17.42;;;;;;;20.51;45.88;95263.63;5044074;28;20048;-82
2022/11/15 00:56:31;;;;;;;18.90;16.30;;;;;;;21.96;45.86;95476.75;5011290;28;20270;-85
2022/11/15 00:58:56;;;;;;;21.73;17.17;;;;;;;21.93;45.88;95461.44;5049869;28;20067;-84
2022/11/15 01:01:23;;;;;;;21.83;16.65;;;;;;;21.94;45.80;95471.09;5023210;28;20041;-82
2022/11/15 01:03:49;;;;;;;21.27;16.58;;;;;;;21.92;45.97;95470.06;5064373;28;20044;-82
2022/11/15 01:06:15;;;;;;;21.98;17.17;;;;;;;21.49;45.45;95403.44;5052741;28;20068;-81
2022/11/15 01:08:43;;;;;;;19.88;16.67;;;;;;;21.90;45.86;95469.06;5029283;28;20107;-82
2022/11/15 01:11:10;;;;;;;21.05;16.35;;;;;;;21.91;45.96;95467.84;5046729;28;20041;-83
2022/11/15 01:13:39;;;;;;;20.58;17.15;;;;;;;21.90;45.74;95485.38;5064163;28;20057;-83
2022/11/15 01:16:09;;;;;;;21.08;16.80;;;;;;;21.89;45.78;95471.06;5011631;28;20102;-83
2022/11/15 01:18:35;;;;;;;20.23;16.70;;;;;;;21.46;45.86;95417.22;5059802;28;20554;-82
2022/11/15 01:21:05;;;;;;;21.50;16.90;;;;;;;21.70;45.84;95444.75;5056293;28;20028;-82
2022/11/15 01:23:30;;;;;;;;;;;;;;;21.86;45.82;95461.16;5051810;28;20033;-83
2022/11/15 01:26:01;;;;;;;20.53;16.87;;;;;;;21.84;45.76;95473.72;5048523;28;19927;-84
2022/11/15 01:28:31;;;;;;;19.85;16.42;;;;;;;21.63;46.11;95431.66;5051013;28;20271;-83
2022/11/15 01:31:01;;;;;;;21.58;17.27;;;;;;;21.49;45.58;95410.81;5025048;28;20045;-85
2022/11/15 01:33:27;;;;;;;19.98;16.23;;;;;;;21.62;45.72;95435.59;5049855;28;20029;-84
2022/11/15 01:35:52;;;;;;;21.20;16.17;;;;;;;19.75;45.60;95181.72;5046238;28;20025;-82
2022/11/15 01:38:18;;;;;;;20.05;16.17;;;;;;;19.86;45.61;95168.25;5033930;28;20056;-81
2022/11/15 01:40:44;;;;;;;19.52;16.42;;;;;;;21.49;45.91;95418.97;5059046;28;20044;-82
2022/11/15 01:43:30;;;;;;;20.33;16.30;;;;;;;20.99;45.81;95338.44;5043260;28;20030;-82
2022/11/15 01:46:15;;;;;;;20.80;17.23;;;;;;;21.42;45.62;95401.13;5018136;28;20068;-83
2022/11/15 01:48:40;;;;;;;20.77;16.88;;;;;;;21.78;45.66;95448.50;5026789;28;20032;-82
2022/11/15 01:51:09;;;;;;;20.45;16.65;;;;;;;21.76;45.50;95457.13;5054590;28;20020;-83
2022/11/15 01:53:34;;;;;;;20.95;16.30;;;;;;;20.92;45.74;95330.00;5025646;28;20128;-82
2022/11/15 01:56:05;;;;;;;21.13;16.50;;;;;;;21.49;45.62;95413.53;5007718;28;20483;-82
2022/11/15 01:58:30;;;;;;;20.02;16.63;;;;;;;21.74;45.90;95448.00;5028675;28;20132;-83
2022/11/15 02:00:56;;;;;;;19.35;16.70;;;;;;;21.75;45.85;95455.66;5060401;28;20032;-82
2022/11/15 02:03:22;;;;;;;20.83;17.17;;;;;;;21.54;45.69;95423.72;5067455;28;20111;-82
2022/11/15 02:05:48;;;;;;;21.00;16.35;;;;;;;20.98;45.88;95345.09;5032028;28;20050;-83
2022/11/15 02:08:19;;;;;;;21.73;16.88;;;;;;;21.75;45.88;95452.19;5039777;28;20049;-82
2022/11/15 02:10:47;;;;;;;21.02;16.75;;;;;;;21.41;45.78;95404.34;5043627;28;20139;-84
2022/11/15 02:13:14;;;;;;;20.27;16.52;;;;;;;21.71;45.72;95448.97;5031405;28;20063;-84
2022/11/15 02:15:45;;;;;;;20.90;17.27;;;;;;;21.69;45.98;95451.44;5047130;28;20045;-82
2022/11/15 02:18:21;;;;;;;21.60;17.23;;;;;;;21.69;45.71;95452.19;5039794;28;20286;-84
2022/11/15 02:21:04;;;;;;;21.00;16.63;;;;;;;21.66;45.77;95447.00;5046528;28;20174;-83
2022/11/15 02:24:00;;;;;;;19.83;16.48;;;;;;;21.67;45.63;95449.22;5011358;28;20041;-83
2022/11/15 02:26:41;;;;;;;20.17;16.60;;;;;;;21.67;45.73;95448.47;5035977;28;20044;-83
2022/11/15 02:29:08;;;;;;;19.65;15.93;;;;;;;21.66;45.79;95450.44;5047760;28;20061;-83
2022/11/15 02:32:00;;;;;;;19.45;16.42;;;;;;;21.66;45.59;95447.00;5037553;28;20042;-82
2022/11/15 02:34:40;;;;;;;19.50;16.45;;;;;;;21.66;45.75;95447.00;5060527;28;20045;-84
2022/11/15 02:37:25;;;;;;;19.13;16.00;;;;;;;21.65;45.71;95440.06;5071332;28;20044;-82
2022/11/15 02:39:57;;;;;;;20.23;16.60;;;;;;;20.86;45.55;95326.53;5054385;28;20518;-81
2022/11/15 02:45:40;;;;;;;19.35;16.35;;;;;;;21.51;46.15;95441.72;5056095;28;20079;-83
2022/11/15 02:48:05;;;;;;;18.70;15.85;;;;;;;21.42;45.62;95413.97;5072177;28;20080;-84
2022/11/15 02:50:31;;;;;;;19.23;16.75;;;;;;;19.59;45.53;95174.22;5058032;28;20514;-82
2022/11/15 02:52:57;;;;;;;19.58;16.30;;;;;;;21.62;45.68;95441.03;5055265;28;20045;-82
2022/11/15 02:55:41;;;;;;;18.25;15.40;;;;;;;21.60;45.76;95436.09;5062111;28;20144;-83
2022/11/15 02:58:26;;;;;;;20.08;16.98;;;;;;;21.62;45.67;95441.03;5036424;28;20048;-83
2022/11/15 03:01:19;;;;;;;21.45;17.17;;;;;;;21.43;45.59;95434.47;5033149;28;20028;-83
2022/11/15 03:04:18;;;;;;;19.75;16.42;;;;;;;21.45;45.72;95437.47;5026271;28;20021;-82
2022/11/15 03:06:51;;;;;;;21.63;15.85;;;;;;;21.45;46.05;95432.03;5030393;28;20052;-84
2022/11/15 03:09:35;;;;;;;18.73;15.15;;;;;;;21.42;45.63;95426.81;5032550;28;20061;-83
2022/11/15 03:12:07;;;;;;;19.77;16.00;;;;;;;21.57;45.47;95449.91;5045340;28;20415;-84
2022/11/15 03:14:35;;;;;;;19.05;15.73;;;;;;;21.58;45.63;95448.66;5036013;28;20037;-84
2022/11/15 03:17:21;;;;;;;18.17;15.50;;;;;;;21.55;45.79;95444.19;5052301;28;20064;-84
2022/11/15 03:19:47;;;;;;;21.67;16.52;;;;;;;21.41;45.67;95414.47;5062375;28;20036;-80
2022/11/15 03:22:16;;;;;;;19.63;15.82;;;;;;;21.58;45.49;95445.94;5038014;28;20039;-84
2022/11/15 03:24:44;;;;;;;19.70;16.35;;;;;;;21.41;45.54;95431.50;5052361;28;20040;-82
2022/11/15 03:27:10;;;;;;;18.92;15.75;;;;;;;21.56;45.56;95442.97;5025451;28;20023;-85
2022/11/15 03:29:37;;;;;;;19.25;15.63;;;;;;;21.16;45.56;95372.59;5030379;28;20037;-83
2022/11/15 03:32:06;;;;;;;19.73;15.98;;;;;;;21.02;45.64;95351.06;5049955;28;20050;-84
2022/11/15 03:34:44;;;;;;;19.02;15.48;;;;;;;21.45;45.59;95415.72;5030943;28;20503;-83
2022/11/15 03:37:10;;;;;;;18.88;15.57;;;;;;;21.56;45.64;95426.66;5037277;28;20029;-81
2022/11/15 03:39:36;;;;;;;20.13;15.68;;;;;;;21.02;45.69;95349.06;5057375;28;20032;-83
2022/11/15 03:42:32;;;;;;;18.88;16.05;;;;;;;21.30;45.19;95379.84;5036832;28;20051;-83
2022/11/15 03:45:09;;;;;;;18.98;15.73;;;;;;;21.57;45.52;95406.44;5049875;28;20093;-83
2022/11/15 03:47:36;;;;;;;18.80;15.60;;;;;;;21.07;45.43;95342.91;5069990;28;20047;-82
2022/11/15 03:50:08;;;;;;;18.90;15.38;;;;;;;21.41;45.58;95398.91;5068318;28;20117;-83
2022/11/15 03:52:34;;;;;;;20.60;16.45;;;;;;;20.09;45.41;95184.22;5064377;28;20064;-81
2022/11/15 03:55:00;;;;;;;19.58;15.75;;;;;;;21.43;45.35;95385.56;5064287;28;20116;-83
2022/11/15 03:57:36;;;;;;;;;;;;;;;;;;;;;
2022/11/15 04:00:04;;;;;;;19.52;15.63;;;;;;;21.57;45.43;95409.16;5063473;28;20021;-85
2022/11/15 04:02:30;;;;;;;19.30;16.30;;;;;;;21.25;45.48;95358.81;5057916;28;20037;-82
2022/11/15 04:04:55;;;;;;;18.10;15.60;;;;;;;20.46;45.40;95245.34;5061996;28;20122;-83
2022/11/15 04:07:20;;;;;;;18.35;15.35;;;;;;;21.54;45.41;95410.13;5048345;28;20037;-82
2022/11/15 04:12:32;;;;;;;17.40;15.05;;;;;;;21.52;45.39;95415.28;5068051;28;20109;-85
2022/11/15 04:15:10;;;;;;;19.23;15.13;;;;;;;21.51;45.71;95402.94;5047196;28;20082;-84
2022/11/15 04:17:46;;;;;;;19.88;15.75;;;;;;;21.49;45.71;95400.72;5047765;28;20461;-81
2022/11/15 04:26:11;;;;;;;18.60;14.90;;;;;;;21.24;45.57;95351.91;5058851;28;20184;-84
2022/11/15 04:29:33;;;;;;;17.73;14.93;;;;;;;21.52;45.29;95415.28;5031804;28;20063;-84
2022/11/15 04:31:22;;;;;;;19.58;15.48;;;;;;;21.14;45.27;95337.03;5044125;28;20040;-83
2022/11/15 04:33:48;;;;;;;18.98;15.93;;;;;;;21.51;45.19;95397.50;5052054;28;20033;-82
2022/11/15 04:39:00;;;;;;;19.33;15.90;;;;;;;21.25;45.32;95358.81;5036601;28;20044;-83
2022/11/15 04:41:25;;;;;;;19.27;15.23;;;;;;;21.52;45.36;95393.53;5039329;28;20041;-85
2022/11/15 04:43:51;;;;;;;19.08;15.07;;;;;;;21.34;45.32;95374.91;5052989;28;20037;-83
2022/11/15 04:46:16;;;;;;;17.33;14.73;;;;;;;21.19;45.15;95358.03;5037759;28;20087;-84
2022/11/15 04:48:42;;;;;;;18.38;15.52;;;;;;;21.48;45.45;95393.78;5049365;28;20040;-83
2022/11/15 04:51:07;;;;;;;19.23;16.38;;;;;;;21.47;45.54;95394.28;5049890;28;20090;-88
2022/11/15 04:53:33;;;;;;;18.15;15.68;;;;;;;21.50;45.47;95404.91;5069494;28;20059;-84
2022/11/15 04:55:58;;;;;;;18.35;14.65;;;;;;;21.21;45.38;95349.41;5000243;28;20055;-80
2022/11/15 04:58:29;;;;;;;19.20;15.68;;;;;;;21.64;45.55;95416.81;5057284;28;20071;-81
2022/11/15 05:01:11;;;;;;;17.38;13.93;;;;;;;21.94;45.83;95402.34;5026231;28;20045;-82
2022/11/15 05:04:21;;;;;;;17.65;13.95;;;;;;;21.00;44.77;95283.66;5007070;28;20037;-81
2022/11/15 05:07:15;;;;;;;17.75;14.70;;;;;;;21.29;44.06;95272.41;5016110;28;20055;-84
2022/11/15 05:10:07;;;;;;;;;;;;;;;;;;;;;
2022/11/15 05:13:02;;;;;;;16.85;14.30;;;;;;;19.02;43.82;94931.84;5002613;28;20753;-84
2022/11/15 05:15:27;;;;;;;17.67;14.40;;;;;;;22.58;43.71;95402.97;5052616;23;20155;-69
2022/11/15 05:17:58;;;;;;;19.73;14.70;;;;;;;22.70;43.57;95396.31;5011279;28;20609;-67
2022/11/15 05:20:23;;;;;;;18.60;14.40;;;;;;;22.83;43.03;95399.28;5025419;28;20071;-68
2022/11/15 05:22:49;;;;;;;17.33;14.48;;;;;;;22.94;42.70;95400.03;5043802;28;20428;-64
2022/11/15 05:25:14;;;;;;;17.65;15.00;;;;;;;22.92;42.33;95386.16;5026678;28;20409;-68
2022/11/15 05:27:40;;;;;;;18.65;14.35;;;;;;;23.03;42.37;95392.38;5047958;28;20492;-63
2022/11/15 05:30:06;;;;;;;17.17;13.82;;;;;;;23.04;42.34;95372.03;5029726;28;20056;-68
2022/11/15 05:32:31;;;;;;;16.73;13.80;;;;;;;23.29;42.25;95392.81;5047989;28;20076;-66
2022/11/15 05:34:57;;;;;;;16.05;13.10;;;;;;;23.37;41.87;95391.03;5012549;28;20040;-68
2022/11/15 05:37:22;;;;;;;17.10;13.65;;;;;;;23.25;42.25;95384.13;5046032;28;20410;-67
2022/11/15 05:39:48;;;;;;;15.82;13.65;;;;;;;23.40;41.67;95414.56;5012932;28;20048;-66
2022/11/15 05:42:14;;;;;;;16.85;13.63;;;;;;;22.95;41.44;95309.66;5029130;28;20045;-67
2022/11/15 05:44:41;;;;;;;16.73;13.93;;;;;;;23.56;41.28;95372.91;4994850;28;20305;-64
2022/11/15 05:47:09;;;;;;;17.58;14.38;;;;;;;23.83;41.35;95396.63;5032463;28;20079;-64
2022/11/15 05:49:35;;;;;;;17.20;14.55;;;;;;;23.38;40.83;95354.38;5029104;28;20155;-64
2022/11/15 05:52:03;;;;;;;17.20;13.88;;;;;;;23.76;41.29;95416.22;5028095;28;20048;-65
2022/11/15 05:54:29;;;;;;;17.98;13.75;;;;;;;23.87;40.71;95417.66;5012693;28;20036;-64
2022/11/15 05:56:55;;;;;;;17.67;14.13;;;;;;;22.79;40.06;95208.19;5012977;28;20147;-66
2022/11/15 05:59:21;;;;;;;18.77;14.68;;;;;;;24.02;40.33;95388.06;5027823;28;21111;-64
2022/11/15 06:01:46;;;;;;;16.75;13.80;;;;;;;24.16;40.36;95397.19;5032558;28;20567;-66
2022/11/15 06:04:12;;;;;;;15.93;13.63;;;;;;;22.26;39.98;95080.72;5046696;28;20470;-65
2022/11/15 06:06:37;;;;;;;19.08;13.98;;;;;;;24.34;40.11;95383.69;5045286;28;20383;-69
2022/11/15 06:09:03;;;;;;;17.63;13.68;;;;;;;24.35;40.23;95401.56;5027688;28;20024;-69
2022/11/15 06:11:28;;;;;;;17.30;13.65;;;;;;;23.26;40.10;95263.00;5045411;28;20041;-67
2022/11/15 06:13:54;;;;;;;17.52;13.68;;;;;;;24.03;40.93;95410.63;5044971;28;20041;-65
2022/11/15 06:16:20;;;;;;;20.42;14.82;;;;;;;24.24;40.52;95409.75;5045384;28;20099;-62
2022/11/15 06:18:46;;;;;;;21.63;13.32;;;;;;;24.16;40.44;95380.81;5027309;28;20374;-64
2022/11/15 06:21:11;;;;;;;20.00;13.75;;;;;;;24.40;40.31;95400.78;4992400;28;20034;-66
2022/11/15 06:23:37;;;;;;;18.63;13.50;;;;;;;23.74;41.71;95361.44;5024705;28;20438;-65
2022/11/15 06:26:02;;;;;;;19.00;13.75;;;;;;;24.03;42.06;95411.38;5011817;28;20444;-66
2022/11/15 06:28:29;;;;;;;17.30;12.93;;;;;;;24.02;45.21;95404.44;5028982;28;20171;-65
2022/11/15 06:30:55;;;;;;;16.15;12.55;;;;;;;24.25;42.74;95400.34;5012245;28;20128;-67
2022/11/15 06:33:20;;;;;;;17.80;13.20;;;;;;;24.44;43.14;95395.78;5047720;28;20100;-66
2022/11/15 06:35:46;;;;;;;17.20;13.23;;;;;;;24.28;42.87;95393.88;5046824;28;20048;-65
2022/11/15 06:38:11;;;;;;;15.90;12.55;;;;;;;24.45;43.82;95397.25;5046522;28;20441;-68
2022/11/15 06:40:38;;;;;;;16.60;13.75;;;;;;;24.23;42.37;95386.47;5047133;28;20213;-67
2022/11/15 06:43:04;;;;;;;16.35;13.07;;;;;;;24.18;44.71;95395.41;5012444;28;20873;-66
2022/11/15 06:45:30;;;;;;;15.88;12.80;;;;;;;24.31;42.99;95392.88;5028229;28;20412;-67
2022/11/15 06:47:55;;;;;;;17.73;12.88;;;;;;;24.51;42.21;95389.78;4996212;28;20025;-66
2022/11/15 06:50:21;;;;;;;16.55;12.20;;;;;;;24.46;42.56;95398.75;5027695;28;20056;-65
2022/11/15 06:52:46;;;;;;;17.25;12.85;;;;;;;24.52;42.62;95396.72;5045939;28;20041;-65
2022/11/15 06:55:12;;;;;;;17.23;13.60;;;;;;;24.60;42.53;95397.66;5028572;28;20478;-67
2022/11/15 06:57:46;;;;;;;18.30;13.35;;;;;;;24.71;41.24;95400.28;5045460;28;20036;-62
2022/11/15 07:00:12;;;;;;;17.30;13.10;;;;;;;24.72;41.22;95399.03;5028283;28;20195;-66
2022/11/15 07:02:38;;;;;;;18.40;13.70;;;;;;;24.53;41.10;95395.47;5011049;28;20585;-65
2022/11/15 07:05:04;;;;;;;15.43;12.68;;;;;;;25.02;40.60;95390.38;5045550;28;20063;-66
2022/11/15 07:07:30;;;;;;;17.00;12.50;;;;;;;25.35;39.83;95381.81;5044533;28;20120;-67
2022/11/15 07:09:55;;;;;;;17.85;13.65;;;;;;;24.89;40.00;95379.28;5007356;28;20092;-64
2022/11/15 07:12:21;;;;;;;19.10;12.93;;;;;;;24.82;40.56;95393.47;5041168;28;20033;-63
2022/11/15 07:14:46;;;;;;;18.58;13.77;;;;;;;24.13;40.17;95273.41;5027282;28;20425;-66
2022/11/15 07:17:12;;;;;;;17.83;13.88;;;;;;;24.68;40.49;95387.66;5045525;28;20089;-67
2022/11/15 07:19:37;;;;;;;18.58;13.50;;;;;;;24.74;40.37;95385.63;5045479;28;20318;-63
2022/11/15 07:22:03;;;;;;;16.27;13.68;;;;;;;25.40;39.35;95375.56;5044172;28;20044;-66
2022/11/15 07:24:28;;;;;;;19.13;13.55;;;;;;;25.16;39.48;95383.78;5026874;28;20052;-67
2022/11/15 07:26:54;;;;;;;18.75;12.50;;;;;;;25.33;39.01;95387.06;4996967;28;20033;-63
2022/11/15 07:29:19;;;;;;;16.42;12.77;;;;;;;24.92;39.43;95375.53;5045927;28;20060;-67
2022/11/15 07:31:45;;;;;;;18.48;13.48;;;;;;;24.83;40.10;95384.06;5028070;28;20059;-68
2022/11/15 07:34:10;;;;;;;18.70;13.68;;;;;;;25.06;39.00;95358.03;5045555;28;20063;-65
2022/11/15 07:36:36;;;;;;;16.60;12.60;;;;;;;25.71;38.38;95394.13;5044089;28;20119;-66
2022/11/15 07:39:02;;;;;;;16.73;13.07;;;;;;;25.48;38.07;95343.66;5027611;28;20055;-66
2022/11/15 07:41:29;;;;;;;17.52;13.15;;;;;;;25.63;38.50;95390.47;5044850;28;20037;-67
2022/11/15 07:43:54;;;;;;;18.20;12.70;;;;;;;25.68;38.35;95384.22;5027061;28;20190;-66
2022/11/15 07:46:20;;;;;;;16.88;13.07;;;;;;;25.43;38.13;95352.69;5043795;28;20611;-62
2022/11/15 07:48:45;;;;;;;17.52;13.18;;;;;;;25.12;38.49;95366.91;5016379;28;20075;-63
2022/11/15 07:51:14;;;;;;;17.77;12.73;;;;;;;24.36;38.21;95198.28;5040557;28;20043;-67
2022/11/15 07:53:40;;;;;;;16.33;12.50;;;;;;;25.41;38.57;95379.78;5006639;28;20029;-65
2022/11/15 07:56:07;;;;;;;16.98;12.25;;;;;;;25.65;38.18;95385.25;5007312;28;20048;-64
2022/11/15 07:58:32;;;;;;;16.13;12.55;;;;;;;25.46;38.67;95390.66;5017663;28;20048;-66
2022/11/15 08:00:58;;;;;;;18.90;13.32;;;;;;;25.06;38.86;95377.16;5062948;28;20043;-62
2022/11/15 08:03:23;;;;;;;16.25;12.50;;;;;;;25.24;38.95;95389.41;5038506;28;20632;-67
2022/11/15 08:05:52;;;;;;;18.73;13.73;;;;;;;24.94;38.76;95351.16;5063573;28;20049;-63
2022/11/15 08:08:17;;;;;;;17.42;13.70;;;;;;;25.16;39.14;95378.31;5043008;28;20045;-63
2022/11/15 08:10:43;;;;;;;17.38;12.98;;;;;;;25.01;39.02;95383.41;5025361;28;20142;-64
2022/11/15 08:13:10;;;;;;;19.35;13.73;;;;;;;24.79;39.48;95360.25;5039338;28;20069;-66
2022/11/15 08:15:35;;;;;;;17.60;12.60;;;;;;;24.81;39.12;95346.81;5022587;28;20116;-65
2022/11/15 08:18:03;;;;;;;17.55;12.88;;;;;;;24.77;39.55;95376.41;5042935;28;20056;-66
2022/11/15 08:20:32;;;;;;;16.88;12.70;;;;;;;24.95;39.24;95379.97;5024656;28;20049;-66
2022/11/15 08:22:58;;;;;;;17.77;12.50;;;;;;;24.18;39.48;95286.25;5039767;28;20064;-65
2022/11/15 08:25:26;;;;;;;18.67;12.50;;;;;;;24.68;39.74;95371.25;5023245;28;20048;-67
2022/11/15 08:27:53;;;;;;;17.75;13.40;;;;;;;24.52;39.53;95342.09;4990972;28;20048;-65
2022/11/15 08:30:18;;;;;;;17.63;13.75;;;;;;;24.52;40.21;95353.03;4992901;28;20147;-65
2022/11/15 08:32:44;;;;;;;17.13;12.45;;;;;;;24.27;40.23;95342.53;5019895;28;20150;-64
2022/11/15 08:35:10;;;;;;;18.30;13.15;;;;;;;24.60;40.26;95375.81;5042864;28;20476;-65
2022/11/15 08:37:35;;;;;;;17.35;12.60;;;;;;;24.46;40.39;95376.91;4990296;28;20099;-64
2022/11/15 08:40:01;;;;;;;16.50;12.55;;;;;;;24.39;40.25;95366.53;5024354;28;20048;-65
2022/11/15 08:42:26;;;;;;;18.13;12.93;;;;;;;24.40;40.32;95389.84;5025084;28;20032;-67
2022/11/15 08:44:52;;;;;;;16.65;13.10;;;;;;;24.37;40.23;95347.19;5042634;28;20283;-62
2022/11/15 08:47:17;;;;;;;17.25;12.13;;;;;;;24.35;40.09;95361.34;5041586;28;20178;-67
2022/11/15 08:49:43;;;;;;;17.75;13.05;;;;;;;23.15;40.50;95167.72;5041348;28;20048;-64
2022/11/15 08:52:09;;;;;;;18.92;12.57;;;;;;;24.36;40.05;95356.63;5041645;28;20043;-67
2022/11/15 08:54:34;;;;;;;17.67;12.45;;;;;;;24.25;40.56;95356.66;5042393;28;20021;-65
2022/11/15 08:57:00;;;;;;;17.02;12.90;;;;;;;24.27;40.53;95337.78;5008429;28;20091;-62
2022/11/15 08:59:25;;;;;;;18.65;12.98;;;;;;;24.50;40.43;95350.09;5024866;28;20049;-64
2022/11/15 09:01:51;;;;;;;19.55;13.60;;;;;;;24.40;40.47;95351.63;5024625;28;20136;-66
2022/11/15 09:04:16;;;;;;;18.40;13.02;;;;;;;24.28;40.07;95333.81;5024065;28;20122;-61
2022/11/15 09:06:42;;;;;;;18.27;13.30;;;;;;;24.11;40.26;95327.75;5023500;28;20130;-65
2022/11/15 09:09:07;;;;;;;18.67;13.30;;;;;;;22.97;40.65;95154.69;5025529;28;20020;-65
2022/11/15 09:11:33;;;;;;;19.25;13.23;;;;;;;24.19;40.30;95331.41;5041934;28;20052;-67
2022/11/15 09:13:58;;;;;;;17.90;13.57;;;;;;;24.14;40.65;95345.84;5041061;28;20051;-65
2022/11/15 09:16:24;;;;;;;17.25;13.05;;;;;;;24.07;40.68;95330.00;5047766;28;20517;-64
2022/11/15 09:18:50;;;;;;;18.30;14.05;;;;;;;24.12;40.83;95337.41;5007117;28;20057;-66
2022/11/15 09:21:15;;;;;;;19.05;13.10;;;;;;;23.93;41.00;95314.72;5022758;28;20036;-66
2022/11/15 09:23:41;;;;;;;17.52;12.98;;;;;;;23.99;40.84;95304.50;5005305;28;20142;-67
2022/11/15 09:26:07;;;;;;;18.77;13.07;;;;;;;24.02;40.93;95317.16;5041432;28;20166;-63
2022/11/15 09:28:33;;;;;;;16.67;12.82;;;;;;;23.39;40.62;95220.31;5040690;28;20608;-65
2022/11/15 09:30:59;;;;;;;18.55;12.80;;;;;;;23.86;40.89;95282.50;5044013;28;20094;-66
2022/11/15 09:33:25;;;;;;;18.27;13.63;;;;;;;23.92;40.63;95296.84;5007677;28;20029;-68
2022/11/15 09:35:51;;;;;;;17.80;12.73;;;;;;;23.98;41.13;95294.09;5042207;28;20064;-66
2022/11/15 09:38:16;;;;;;;17.85;13.40;;;;;;;23.87;41.30;95305.81;5024498;28;20056;-62
2022/11/15 09:40:42;;;;;;;17.92;13.02;;;;;;;23.72;41.24;95265.75;5024591;28;20094;-64
2022/11/15 09:43:27;;;;;;;18.13;13.52;;;;;;;23.97;40.61;95298.81;5025490;28;20072;-65
2022/11/15 09:46:00;;;;;;;18.17;13.68;;;;;;;23.91;41.26;95289.91;5001570;28;20080;-65
2022/11/15 09:48:54;;;;;;;17.42;13.40;;;;;;;22.98;40.47;95145.25;5042271;28;20068;-64
2022/11/15 09:51:29;;;;;;;18.55;13.55;;;;;;;23.36;40.97;95192.59;5024407;28;20053;-66
2022/11/15 09:53:54;;;;;;;19.27;13.63;;;;;;;20.30;40.93;94733.50;5041800;28;20045;-66
2022/11/15 09:56:21;;;;;;;17.00;12.57;;;;;;;23.37;41.06;95197.53;5041942;28;20049;-62
2022/11/15 09:59:07;;;;;;;20.05;13.50;;;;;;;23.91;40.78;95273.53;5008054;28;20037;-63
2022/11/15 10:01:51;;;;;;;20.48;13.73;;;;;;;23.91;41.03;95262.63;5001092;28;20037;-66
2022/11/15 10:04:17;;;;;;;18.52;13.40;;;;;;;22.56;41.14;95060.53;5007748;28;20155;-64
2022/11/15 10:06:50;;;;;;;17.52;13.23;;;;;;;23.91;40.79;95279.00;5014973;28;20865;-66
2022/11/15 10:09:23;;;;;;;18.55;13.30;;;;;;;23.86;41.36;95255.25;5022157;28;20575;-66
2022/11/15 10:11:48;;;;;;;17.40;12.27;;;;;;;23.92;40.58;95247.75;5014056;28;20052;-62
2022/11/15 10:14:18;;;;;;;17.23;12.80;;;;;;;24.06;40.85;95252.13;5027539;28;20053;-62
2022/11/15 10:16:56;;;;;;;18.52;13.02;;;;;;;24.01;40.66;95246.72;5027255;28;20037;-66
2022/11/15 10:20:00;;;;;;;18.33;13.18;;;;;;;23.69;40.88;95179.50;5036538;28;20414;-64
2022/11/15 10:22:30;;;;;;;19.23;13.85;;;;;;;24.22;40.45;95242.34;5033318;28;20037;-64
2022/11/15 10:25:16;;;;;;;18.48;13.38;;;;;;;24.36;40.45;95236.50;5011750;28;20135;-65
2022/11/15 10:27:42;;;;;;;16.63;12.60;;;;;;;24.34;40.37;95217.19;5031539;28;20471;-66
2022/11/15 10:30:14;;;;;;;18.48;13.30;;;;;;;24.55;40.36;95237.34;5031505;28;20032;-67
2022/11/15 10:32:40;;;;;;;16.35;12.88;;;;;;;24.61;40.35;95227.09;5044183;28;20068;-67
2022/11/15 10:35:24;;;;;;;18.55;13.32;;;;;;;24.71;40.11;95225.47;5010429;28;20060;-66
2022/11/15 10:37:49;;;;;;;17.95;13.05;;;;;;;24.53;39.72;95190.69;5041532;28;20041;-66
2022/11/15 10:40:22;;;;;;;18.48;13.25;;;;;;;24.82;39.83;95202.25;5022999;28;20558;-66
2022/11/15 10:42:49;;;;;;;19.42;13.45;;;;;;;23.76;39.54;95026.25;5003895;28;20245;-71
2022/11/15 10:45:25;;;;;;;17.80;12.80;;;;;;;24.94;39.62;95202.88;5011200;28;20033;-66
2022/11/15 10:47:50;;;;;;;17.92;12.68;;;;;;;24.76;39.75;95170.09;5026936;28;20140;-68
2022/11/15 10:50:43;;;;;;;19.13;13.13;;;;;;;25.08;39.35;95191.56;5027285;28;20037;-63
2022/11/15 10:53:28;;;;;;;17.73;12.90;;;;;;;25.06;39.27;95193.31;5005510;28;20222;-65
2022/11/15 10:56:01;;;;;;;16.30;12.75;;;;;;;25.15;39.27;95188.22;5010516;28;20095;-68
2022/11/15 10:58:32;;;;;;;18.80;13.60;;;;;;;25.15;39.00;95185.50;4993696;28;20080;-66
2022/11/15 11:01:11;;;;;;;16.77;12.85;;;;;;;25.14;39.61;95183.28;5026905;28;20064;-61
2022/11/15 11:03:38;;;;;;;17.75;13.18;;;;;;;25.00;39.18;95157.88;5044623;28;20029;-65
2022/11/15 11:06:05;;;;;;;16.23;12.45;;;;;;;25.26;39.01;95158.03;5026847;28;20036;-66
2022/11/15 11:08:31;;;;;;;17.75;13.32;;;;;;;25.29;38.72;95151.53;5026187;28;20221;-66
2022/11/15 11:10:59;;;;;;;17.90;13.25;;;;;;;25.31;38.96;95162.69;5027142;28;20045;-65
2022/11/15 11:13:27;;;;;;;18.92;13.52;;;;;;;25.48;38.75;95158.44;5009088;28;20537;-66
2022/11/15 11:16:14;;;;;;;19.33;13.55;;;;;;;25.00;38.86;95108.69;5044638;28;20110;-65
2022/11/15 11:19:17;;;;;;;17.13;12.88;;;;;;;25.46;38.95;95154.75;5028307;28;20025;-63
2022/11/15 11:22:01;;;;;;;17.20;12.98;;;;;;;25.46;38.82;95143.81;5025596;28;20063;-67
2022/11/15 11:24:44;;;;;;;18.73;13.30;;;;;;;25.63;38.23;95136.09;5010116;28;21521;-63
2022/11/15 11:27:18;;;;;;;17.55;13.32;;;;;;;25.59;38.46;95130.19;5008156;28;20094;-65
2022/11/15 11:30:11;;;;;;;17.65;13.57;;;;;;;25.52;38.68;95136.28;5023079;28;20036;-65
2022/11/15 11:33:00;;;;;;;18.48;13.77;;;;;;;25.69;38.43;95125.84;5042154;28;20468;-63
2022/11/15 11:35:38;;;;;;;17.73;12.85;;;;;;;25.79;38.15;95106.50;4993871;28;20045;-65
2022/11/15 11:38:30;;;;;;;15.68;12.30;;;;;;;25.86;37.98;95111.38;5043145;28;20044;-66
2022/11/15 11:41:30;;;;;;;18.48;14.13;;;;;;;25.88;38.05;95105.38;5042933;28;20041;-64
2022/11/15 11:44:23;;;;;;;18.08;13.27;;;;;;;26.05;37.71;95090.16;5042260;28;20052;-61
2022/11/15 11:46:54;;;;;;;17.17;12.80;;;;;;;25.85;38.21;95098.94;5023683;28;20052;-64